createdAt,value
2022-12-03T00:00:14.097Z,101521.69
2022-12-03T00:02:41.654Z,101523.19
2022-12-03T00:05:08.715Z,101522.50
2022-12-03T00:07:35.125Z,101499.94
2022-12-03T00:10:01.554Z,101500.03
2022-12-03T00:12:27.983Z,101509.59
2022-12-03T00:14:54.633Z,101492.22
2022-12-03T00:17:21.128Z,101477.16
2022-12-03T00:19:47.452Z,101516.41
2022-12-03T00:22:13.825Z,101490.31
2022-12-03T00:24:40.194Z,101438.94
2022-12-03T00:27:06.652Z,101508.66
2022-12-03T00:29:33.154Z,101460.50
2022-12-03T00:31:59.550Z,101443.81
2022-12-03T00:34:25.873Z,101464.94
2022-12-03T00:36:52.198Z,101495.56
2022-12-03T00:39:18.621Z,101497.25
2022-12-03T00:41:44.945Z,101493.84
2022-12-03T00:44:12.092Z,101502.56
2022-12-03T00:46:38.504Z,101439.63
2022-12-03T00:49:05.105Z,101472.81
2022-12-03T00:51:31.537Z,101455.44
2022-12-03T00:53:57.828Z,101437.03
2022-12-03T00:56:24.151Z,101448.28
2022-12-03T00:58:50.638Z,101434.44
2022-12-03T01:01:16.997Z,101473.63
2022-12-03T01:03:43.334Z,101469.19
2022-12-03T01:06:09.706Z,101474.41
2022-12-03T01:08:36.069Z,101488.16
2022-12-03T01:11:02.413Z,101372.56
2022-12-03T01:13:28.784Z,101421.50
2022-12-03T01:15:55.290Z,101417.09
2022-12-03T01:18:21.687Z,101458.66
2022-12-03T01:20:48.065Z,101415.25
2022-12-03T01:23:14.391Z,101462.41
2022-12-03T01:25:40.828Z,101480.66
2022-12-03T01:28:07.220Z,101501.72
2022-12-03T01:30:53.605Z,101432.81
2022-12-03T01:33:19.983Z,101463.53
2022-12-03T01:35:46.330Z,101472.34
2022-12-03T01:38:12.635Z,101486.97
2022-12-03T01:40:39.098Z,101458.91
2022-12-03T01:43:05.464Z,101479.09
2022-12-03T01:45:32.024Z,101446.84
2022-12-03T01:47:58.407Z,101506.03
2022-12-03T01:50:31.744Z,101432.84
2022-12-03T01:53:00.902Z,101469.94
2022-12-03T01:55:27.480Z,101471.09
2022-12-03T01:57:56.996Z,101464.41
2022-12-03T02:00:26.900Z,101448.66
2022-12-03T02:02:59.703Z,101500.94
2022-12-03T02:05:31.602Z,101450.34
2022-12-03T02:07:58.569Z,101494.00
2022-12-03T02:10:34.241Z,101486.16
2022-12-03T02:13:07.501Z,101439.13
2022-12-03T02:15:35.157Z,101465.47
2022-12-03T02:18:02.029Z,101459.31
2022-12-03T02:20:30.429Z,101480.22
2022-12-03T02:23:08.873Z,101485.50
2022-12-03T02:25:36.711Z,101455.88
2022-12-03T02:28:05.736Z,101484.63
2022-12-03T02:30:32.447Z,101452.28
2022-12-03T02:32:59.647Z,101478.50
2022-12-03T02:35:30.109Z,101475.03
2022-12-03T02:38:02.181Z,101432.22
2022-12-03T02:40:32.704Z,101431.50
2022-12-03T02:43:02.299Z,101437.44
2022-12-03T02:45:39.269Z,101472.41
2022-12-03T02:48:12.849Z,101471.50
2022-12-03T02:50:42.283Z,101473.22
2022-12-03T02:53:13.805Z,101428.06
2022-12-03T02:55:41.266Z,101475.00
2022-12-03T02:58:07.646Z,101396.63
2022-12-03T03:00:36.029Z,101442.09
2022-12-03T03:03:04.983Z,101457.78
2022-12-03T03:05:32.616Z,101382.88
2022-12-03T03:08:00.594Z,101437.59
2022-12-03T03:10:29.202Z,101425.38
2022-12-03T03:12:56.308Z,101466.19
2022-12-03T03:15:23.689Z,101458.44
2022-12-03T03:17:50.333Z,101415.91
2022-12-03T03:20:17.275Z,101417.63
2022-12-03T03:22:43.698Z,101419.44
2022-12-03T03:25:15.214Z,101435.00
2022-12-03T03:27:41.848Z,101466.44
2022-12-03T03:30:09.996Z,101448.19
2022-12-03T03:32:38.281Z,101436.78
2022-12-03T03:35:05.695Z,101443.78
2022-12-03T03:37:32.283Z,101447.25
2022-12-03T03:39:58.716Z,101398.59
2022-12-03T03:42:25.316Z,101413.13
2022-12-03T03:44:52.326Z,101427.97
2022-12-03T03:47:20.029Z,101435.03
2022-12-03T03:49:48.014Z,101458.50
2022-12-03T03:52:14.675Z,101438.66
2022-12-03T03:54:41.034Z,101431.53
2022-12-03T03:57:07.455Z,101419.56
2022-12-03T03:59:33.808Z,101438.75
2022-12-03T04:02:00.207Z,101414.25
2022-12-03T04:04:28.556Z,101434.38
2022-12-03T04:06:54.933Z,101414.25
2022-12-03T04:09:21.288Z,101422.88
2022-12-03T04:12:06.328Z,101402.19
2022-12-03T04:14:32.685Z,101413.41
2022-12-03T04:16:59.137Z,101430.13
2022-12-03T04:19:25.489Z,101400.34
2022-12-03T04:22:10.435Z,101388.28
2022-12-03T04:24:36.908Z,101416.03
2022-12-03T04:27:21.756Z,101414.16
2022-12-03T04:29:48.107Z,101380.28
2022-12-03T04:32:33.155Z,101346.38
2022-12-03T04:35:17.936Z,101383.84
2022-12-03T04:37:44.299Z,101425.69
2022-12-03T04:40:30.866Z,101344.00
2022-12-03T04:42:57.196Z,101373.59
2022-12-03T04:45:23.524Z,101379.72
2022-12-03T04:47:49.908Z,101365.72
2022-12-03T04:50:16.347Z,101383.09
2022-12-03T04:52:42.666Z,101376.13
2022-12-03T04:55:09.152Z,101397.84
2022-12-03T04:57:35.550Z,101277.00
2022-12-03T05:00:02.437Z,101421.44
2022-12-03T05:02:28.810Z,101390.16
2022-12-03T05:04:55.482Z,101377.97
2022-12-03T05:07:22.025Z,101403.00
2022-12-03T05:09:48.372Z,101394.34
2022-12-03T05:12:14.660Z,101400.44
2022-12-03T05:14:41.085Z,101348.06
2022-12-03T05:17:07.512Z,101378.44
2022-12-03T05:19:52.464Z,101431.63
2022-12-03T05:22:18.780Z,101410.72
2022-12-03T05:24:45.127Z,101407.22
2022-12-03T05:27:11.435Z,101400.31
2022-12-03T05:29:37.780Z,101382.03
2022-12-03T05:32:04.241Z,101400.13
2022-12-03T05:34:30.573Z,101360.25
2022-12-03T05:36:56.885Z,101392.56
2022-12-03T05:39:23.193Z,101387.38
2022-12-03T05:42:08.211Z,101392.72
2022-12-03T05:44:34.524Z,101390.06
2022-12-03T05:47:00.864Z,101419.66
2022-12-03T05:49:27.183Z,101388.28
2022-12-03T05:51:58.264Z,101374.28
2022-12-03T05:54:25.137Z,101387.16
2022-12-03T05:56:51.453Z,101374.22
2022-12-03T05:59:17.777Z,101412.38
2022-12-03T06:01:44.162Z,101392.47
2022-12-03T06:04:10.544Z,101416.03
2022-12-03T06:06:36.865Z,101368.09
2022-12-03T06:09:03.573Z,101388.09
2022-12-03T06:11:30.224Z,101363.78
2022-12-03T06:13:56.539Z,101331.25
2022-12-03T06:16:22.949Z,101379.44
2022-12-03T06:18:49.337Z,101412.50
2022-12-03T06:21:15.703Z,101379.25
2022-12-03T06:23:44.554Z,101416.84
2022-12-03T06:26:12.261Z,101395.94
2022-12-03T06:28:38.937Z,101363.69
2022-12-03T06:31:05.825Z,101385.66
2022-12-03T06:33:32.216Z,101363.06
2022-12-03T06:35:58.524Z,101399.69
2022-12-03T06:38:24.825Z,101401.38
2022-12-03T06:40:51.135Z,101356.16
2022-12-03T06:43:17.628Z,101364.03
2022-12-03T06:45:47.715Z,101308.19
2022-12-03T06:48:14.623Z,101383.28
2022-12-03T06:50:40.971Z,101316.94
2022-12-03T06:53:07.401Z,101374.44
2022-12-03T06:55:33.719Z,101384.78
2022-12-03T06:58:00.024Z,101377.88
2022-12-03T07:00:26.445Z,101374.34
2022-12-03T07:02:59.328Z,101409.19
2022-12-03T07:05:25.722Z,101320.09
2022-12-03T07:07:55.184Z,101337.50
2022-12-03T07:10:22.000Z,101398.47
2022-12-03T07:12:48.344Z,101409.00
2022-12-03T07:15:14.891Z,101407.19
2022-12-03T07:17:41.257Z,101375.91
2022-12-03T07:20:08.474Z,101366.44
2022-12-03T07:22:34.790Z,101342.66
2022-12-03T07:25:01.161Z,101371.38
2022-12-03T07:27:27.584Z,101348.06
2022-12-03T07:29:54.005Z,101362.72
2022-12-03T07:32:20.318Z,101363.59
2022-12-03T07:34:46.638Z,101377.56
2022-12-03T07:37:13.077Z,101413.06
2022-12-03T07:39:39.393Z,101398.38
2022-12-03T07:42:05.816Z,101285.34
2022-12-03T07:44:32.132Z,101410.81
2022-12-03T07:46:59.212Z,101410.72
2022-12-03T07:49:26.633Z,101379.16
2022-12-03T07:51:56.963Z,101372.28
2022-12-03T07:54:24.483Z,101373.31
2022-12-03T07:56:50.822Z,101383.78
2022-12-03T07:59:17.658Z,101387.09
2022-12-03T08:01:44.244Z,101388.00
2022-12-03T08:04:12.848Z,101385.47
2022-12-03T08:06:39.208Z,101394.78
2022-12-03T08:09:05.509Z,101416.69
2022-12-03T08:11:32.964Z,101398.69
2022-12-03T08:13:59.552Z,101389.88
2022-12-03T08:16:26.021Z,101368.88
2022-12-03T08:18:54.826Z,101388.84
2022-12-03T08:21:25.412Z,101412.47
2022-12-03T08:23:51.754Z,101417.69
2022-12-03T08:26:27.924Z,101415.84
2022-12-03T08:28:54.512Z,101413.22
2022-12-03T08:31:27.993Z,101426.34
2022-12-03T08:34:12.626Z,101383.91
2022-12-03T08:36:39.237Z,101424.03
2022-12-03T08:39:14.638Z,101421.34
2022-12-03T08:41:59.888Z,101400.53
2022-12-03T08:44:36.604Z,101416.13
2022-12-03T08:47:19.362Z,101384.75
2022-12-03T08:49:57.920Z,101410.84
2022-12-03T08:52:31.428Z,101417.88
2022-12-03T08:54:57.909Z,101379.69
2022-12-03T08:57:33.004Z,101428.47
2022-12-03T09:00:22.881Z,101423.28
2022-12-03T09:02:54.887Z,101407.59
2022-12-03T09:05:39.117Z,101428.66
2022-12-03T09:08:05.513Z,101388.50
2022-12-03T09:10:31.954Z,101402.22
2022-12-03T09:12:58.341Z,101415.38
2022-12-03T09:15:24.652Z,101278.88
2022-12-03T09:17:50.991Z,101388.63
2022-12-03T09:20:17.335Z,101430.41
2022-12-03T09:22:43.750Z,101414.72
2022-12-03T09:25:13.828Z,101391.22
2022-12-03T09:27:40.256Z,101385.09
2022-12-03T09:30:07.194Z,101406.09
2022-12-03T09:32:34.412Z,101411.31
2022-12-03T09:35:00.757Z,101394.75
2022-12-03T09:37:27.082Z,101407.75
2022-12-03T09:39:53.398Z,101403.53
2022-12-03T09:42:19.816Z,101325.94
2022-12-03T09:44:46.245Z,101383.59
2022-12-03T09:47:13.118Z,101394.09
2022-12-03T09:49:39.994Z,101387.28
2022-12-03T09:52:07.410Z,101403.81
2022-12-03T09:54:34.431Z,101409.81
2022-12-03T09:57:02.547Z,101418.53
2022-12-03T09:59:34.196Z,101416.47
2022-12-03T10:02:02.882Z,101392.25
2022-12-03T10:04:30.063Z,101393.34
2022-12-03T10:06:58.478Z,101332.34
2022-12-03T10:09:27.858Z,101369.81
2022-12-03T10:11:56.216Z,101367.19
2022-12-03T10:14:22.749Z,101390.00
2022-12-03T10:16:49.602Z,101345.56
2022-12-03T10:19:22.533Z,101368.00
2022-12-03T10:21:49.060Z,101360.44
2022-12-03T10:24:24.133Z,101378.88
2022-12-03T10:26:52.860Z,101325.69
2022-12-03T10:29:33.496Z,101375.50
2022-12-03T10:32:06.677Z,101351.00
2022-12-03T10:34:38.183Z,101355.53
2022-12-03T10:37:16.504Z,101314.63
2022-12-03T10:39:56.595Z,101330.22
2022-12-03T10:42:25.249Z,101352.97
2022-12-03T10:45:22.790Z,101330.41
2022-12-03T10:48:17.647Z,101337.56
2022-12-03T10:50:48.635Z,101303.66
2022-12-03T10:53:15.645Z,101293.81
2022-12-03T10:55:43.689Z,101333.00
2022-12-03T10:58:23.227Z,101272.19
2022-12-03T11:00:52.329Z,101298.28
2022-12-03T11:03:22.025Z,101321.03
2022-12-03T11:05:49.228Z,101305.28
2022-12-03T11:08:18.462Z,101307.94
2022-12-03T11:10:45.643Z,101283.50
2022-12-03T11:13:32.227Z,101322.66
2022-12-03T11:16:00.053Z,101311.56
2022-12-03T11:18:38.606Z,101317.69
2022-12-03T11:21:12.032Z,101315.88
2022-12-03T11:23:58.579Z,101254.25
2022-12-03T11:26:27.964Z,101307.28
2022-12-03T11:28:55.607Z,101314.81
2022-12-03T11:31:39.413Z,101286.38
2022-12-03T11:34:34.926Z,101278.44
2022-12-03T11:37:10.311Z,101301.19
2022-12-03T11:39:52.753Z,101295.16
2022-12-03T11:42:25.587Z,101296.03
2022-12-03T11:45:04.332Z,101289.09
2022-12-03T11:47:42.326Z,101260.47
2022-12-03T11:50:33.605Z,101254.34
2022-12-03T11:53:15.277Z,101253.56
2022-12-03T11:56:02.881Z,101249.16
2022-12-03T11:58:30.798Z,101253.50
2022-12-03T12:01:00.177Z,101270.88
2022-12-03T12:03:30.145Z,101268.28
2022-12-03T12:06:15.698Z,101265.81
2022-12-03T12:08:56.999Z,101245.84
2022-12-03T12:11:27.318Z,101226.66
2022-12-03T12:13:55.451Z,101248.31
2022-12-03T12:16:43.040Z,101244.00
2022-12-03T12:19:42.715Z,101251.94
2022-12-03T12:22:27.316Z,101251.19
2022-12-03T12:24:59.510Z,101246.75
2022-12-03T12:27:34.273Z,101247.69
2022-12-03T12:30:14.231Z,101250.31
2022-12-03T12:32:52.271Z,101229.44
2022-12-03T12:35:21.294Z,101241.72
2022-12-03T12:37:59.618Z,101237.38
2022-12-03T12:40:28.725Z,101236.56
2022-12-03T12:43:13.218Z,101180.06
2022-12-03T12:45:43.367Z,101205.25
2022-12-03T12:48:09.641Z,101226.91
2022-12-03T12:50:52.106Z,101194.88
2022-12-03T12:53:24.211Z,101215.69
2022-12-03T12:56:30.176Z,101225.22
2022-12-03T12:59:11.561Z,101209.63
2022-12-03T13:01:38.968Z,101176.66
2022-12-03T13:07:11.473Z,101162.78
2022-12-03T13:09:39.509Z,101204.44
2022-12-03T13:12:17.537Z,101154.13
2022-12-03T13:14:44.228Z,101175.78
2022-12-03T13:17:16.126Z,101157.59
2022-12-03T13:19:48.245Z,101208.78
2022-12-03T13:22:21.089Z,101201.06
2022-12-03T13:24:52.756Z,101067.34
2022-12-03T13:27:31.243Z,101174.09
2022-12-03T13:30:03.250Z,101159.31
2022-12-03T13:32:36.111Z,101186.28
2022-12-03T13:35:13.638Z,101161.06
2022-12-03T13:37:39.947Z,101179.25
2022-12-03T13:40:18.981Z,101176.56
2022-12-03T13:42:46.484Z,101166.09
2022-12-03T13:45:15.923Z,101175.75
2022-12-03T13:47:58.559Z,101173.03
2022-12-03T13:50:43.896Z,101179.97
2022-12-03T13:53:22.476Z,101185.22
2022-12-03T13:55:57.791Z,101181.78
2022-12-03T13:58:24.199Z,101148.75
2022-12-03T14:00:51.039Z,101162.69
2022-12-03T14:03:17.546Z,101140.06
2022-12-03T14:05:43.854Z,101115.72
2022-12-03T14:08:10.463Z,101100.94
2022-12-03T14:10:36.835Z,101157.38
2022-12-03T14:13:06.242Z,101127.88
2022-12-03T14:15:32.595Z,101148.66
2022-12-03T14:17:58.955Z,101146.97
2022-12-03T14:20:25.564Z,101127.03
2022-12-03T14:22:56.399Z,101048.88
2022-12-03T14:25:25.616Z,101144.44
2022-12-03T14:27:52.095Z,101071.41
2022-12-03T14:30:18.539Z,101105.28
2022-12-03T14:32:44.998Z,101166.03
2022-12-03T14:35:11.396Z,101163.44
2022-12-03T14:37:37.774Z,101021.97
2022-12-03T14:40:07.009Z,101061.75
2022-12-03T14:42:33.321Z,101165.13
2022-12-03T14:44:59.650Z,101175.56
2022-12-03T14:47:26.014Z,101040.19
2022-12-03T14:49:52.983Z,101059.31
2022-12-03T14:52:19.993Z,101183.34
2022-12-03T14:54:46.394Z,101027.13
2022-12-03T14:57:14.235Z,101019.28
2022-12-03T14:59:44.524Z,101094.88
2022-12-03T15:02:11.970Z,101170.44
2022-12-03T15:04:39.605Z,101107.91
2022-12-03T15:07:06.681Z,101126.06
2022-12-03T15:09:33.269Z,101155.63
2022-12-03T15:11:59.995Z,101162.56
2022-12-03T15:14:26.597Z,101157.41
2022-12-03T15:16:53.005Z,101133.03
2022-12-03T15:19:19.505Z,101117.41
2022-12-03T15:21:45.824Z,101085.31
2022-12-03T15:24:12.346Z,101153.78
2022-12-03T15:26:38.691Z,101126.03
2022-12-03T15:29:05.088Z,101170.34
2022-12-03T15:31:31.495Z,101133.00
2022-12-03T15:33:57.927Z,101169.47
2022-12-03T15:36:24.360Z,101171.16
2022-12-03T15:38:50.693Z,101161.66
2022-12-03T15:41:29.509Z,101167.72
2022-12-03T15:43:58.378Z,101149.47
2022-12-03T15:46:25.408Z,101113.06
2022-12-03T15:48:52.024Z,101148.69
2022-12-03T15:51:19.027Z,101159.88
2022-12-03T15:53:45.553Z,101144.31
2022-12-03T15:56:12.048Z,101129.50
2022-12-03T15:58:39.819Z,101147.78
2022-12-03T16:01:07.099Z,101165.16
2022-12-03T16:03:33.565Z,101143.38
2022-12-03T16:06:00.000Z,101149.56
2022-12-03T16:08:26.878Z,101174.56
2022-12-03T16:10:53.614Z,101145.09
2022-12-03T16:13:19.952Z,101142.50
2022-12-03T16:15:46.328Z,101114.69
2022-12-03T16:18:12.661Z,101143.41
2022-12-03T16:20:39.016Z,101097.34
2022-12-03T16:23:05.434Z,101145.03
2022-12-03T16:25:31.875Z,101096.38
2022-12-03T16:27:58.320Z,101060.00
2022-12-03T16:30:24.820Z,101131.09
2022-12-03T16:32:51.240Z,101150.16
2022-12-03T16:35:17.714Z,101133.66
2022-12-03T16:37:44.478Z,101105.06
2022-12-03T16:40:11.568Z,101101.59
2022-12-03T16:42:37.959Z,101031.19
2022-12-03T16:45:04.647Z,101083.41
2022-12-03T16:47:34.150Z,101160.72
2022-12-03T16:50:02.419Z,101155.47
2022-12-03T16:52:28.784Z,101118.94
2022-12-03T16:54:55.122Z,101167.59
2022-12-03T16:57:21.437Z,101086.00
2022-12-03T16:59:47.768Z,101095.72
2022-12-03T17:02:14.263Z,101129.47
2022-12-03T17:04:40.746Z,101094.00
2022-12-03T17:07:07.150Z,101067.91
2022-12-03T17:09:33.495Z,101128.69
2022-12-03T17:11:59.915Z,101151.97
2022-12-03T17:14:31.442Z,101016.56
2022-12-03T17:17:17.323Z,101123.41
2022-12-03T17:19:43.947Z,101157.25
2022-12-03T17:22:10.405Z,101067.88
2022-12-03T17:24:36.812Z,101019.19
2022-12-03T17:27:06.192Z,101101.63
2022-12-03T17:29:32.619Z,101033.03
2022-12-03T17:31:59.106Z,100927.22
2022-12-03T17:34:25.488Z,101097.41
2022-12-03T17:36:51.905Z,101133.84
2022-12-03T17:39:18.364Z,101141.72
2022-12-03T17:41:44.801Z,101133.00
2022-12-03T17:44:15.080Z,101089.63
2022-12-03T17:46:44.373Z,101098.28
2022-12-03T17:49:10.878Z,101115.63
2022-12-03T17:51:37.220Z,101120.06
2022-12-03T17:54:03.780Z,101106.88
2022-12-03T17:56:30.297Z,101075.78
2022-12-03T17:58:57.069Z,101110.44
2022-12-03T18:01:23.555Z,101080.06
2022-12-03T18:03:50.049Z,101015.94
2022-12-03T18:06:16.437Z,101117.47
2022-12-03T18:08:42.848Z,101078.38
2022-12-03T18:11:09.209Z,101105.38
2022-12-03T18:13:35.538Z,101087.13
2022-12-03T18:16:01.980Z,101087.94
2022-12-03T18:18:28.376Z,101084.44
2022-12-03T18:20:54.771Z,101092.28
2022-12-03T18:23:21.250Z,101075.78
2022-12-03T18:25:47.634Z,101036.78
2022-12-03T18:28:13.973Z,100999.44
2022-12-03T18:30:40.327Z,101090.59
2022-12-03T18:33:06.773Z,101098.34
2022-12-03T18:35:33.302Z,101067.19
2022-12-03T18:37:59.677Z,101083.56
2022-12-03T18:40:27.088Z,101093.13
2022-12-03T18:42:53.571Z,101080.19
2022-12-03T18:45:19.907Z,101034.19
2022-12-03T18:47:46.389Z,100964.78
2022-12-03T18:50:13.845Z,101101.94
2022-12-03T18:52:40.248Z,101027.19
2022-12-03T18:55:07.397Z,100982.00
2022-12-03T18:57:33.792Z,100986.31
2022-12-03T19:00:00.194Z,101069.63
2022-12-03T19:03:01.126Z,101079.22
2022-12-03T19:05:13.070Z,101049.66
2022-12-03T19:07:39.519Z,101060.84
2022-12-03T19:10:06.731Z,101058.31
2022-12-03T19:12:33.355Z,101042.75
2022-12-03T19:14:59.742Z,101007.22
2022-12-03T19:17:27.178Z,101051.53
2022-12-03T19:19:54.167Z,101109.53
2022-12-03T19:22:20.759Z,101087.84
2022-12-03T19:24:47.098Z,101086.19
2022-12-03T19:27:13.471Z,101079.22
2022-12-03T19:29:39.910Z,100978.41
2022-12-03T19:32:06.578Z,101096.59
2022-12-03T19:34:33.100Z,100995.81
2022-12-03T19:36:59.441Z,101044.59
2022-12-03T19:39:25.959Z,101048.81
2022-12-03T19:41:52.392Z,100975.91
2022-12-03T19:44:19.409Z,101075.66
2022-12-03T19:46:45.920Z,101085.22
2022-12-03T19:49:12.534Z,101060.91
2022-12-03T19:51:38.969Z,101086.19
2022-12-03T19:54:07.258Z,101092.97
2022-12-03T19:56:34.432Z,101096.47
2022-12-03T19:59:00.974Z,101014.81
2022-12-03T20:01:30.840Z,101051.38
2022-12-03T20:04:04.760Z,101081.72
2022-12-03T20:06:33.673Z,101091.91
2022-12-03T20:09:11.993Z,101037.47
2022-12-03T20:11:40.260Z,101094.75
2022-12-03T20:14:12.682Z,101094.63
2022-12-03T20:16:39.291Z,101045.19
2022-12-03T20:19:07.978Z,101004.44
2022-12-03T20:21:36.870Z,101101.69
2022-12-03T20:24:03.896Z,101099.06
2022-12-03T20:26:30.331Z,101109.47
2022-12-03T20:28:57.649Z,101095.69
2022-12-03T20:31:27.309Z,101000.97
2022-12-03T20:33:58.152Z,101080.03
2022-12-03T20:36:25.493Z,101108.69
2022-12-03T20:38:57.243Z,101108.69
2022-12-03T20:41:24.579Z,101105.16
2022-12-03T20:43:51.582Z,101090.28
2022-12-03T20:46:26.787Z,101004.53
2022-12-03T20:48:54.351Z,101085.16
2022-12-03T20:51:23.276Z,101081.75
2022-12-03T20:53:49.938Z,101058.31
2022-12-03T20:56:22.432Z,101045.34
2022-12-03T20:58:50.006Z,100981.88
2022-12-03T21:01:19.689Z,100963.00
2022-12-03T21:03:47.335Z,101070.47
2022-12-03T21:06:14.925Z,101073.13
2022-12-03T21:08:42.766Z,101080.06
2022-12-03T21:11:15.188Z,101082.72
2022-12-03T21:13:43.500Z,101046.28
2022-12-03T21:16:13.665Z,101056.66
2022-12-03T21:18:40.704Z,101021.13
2022-12-03T21:21:08.483Z,101079.31
2022-12-03T21:23:35.715Z,101036.72
2022-12-03T21:26:10.379Z,100943.84
2022-12-03T21:28:38.711Z,101001.13
2022-12-03T21:31:10.969Z,101063.69
2022-12-03T21:33:38.241Z,101072.38
2022-12-03T21:36:05.839Z,101061.91
2022-12-03T21:38:34.056Z,101054.94
2022-12-03T21:41:00.970Z,101022.84
2022-12-03T21:43:27.799Z,101028.13
2022-12-03T21:45:54.696Z,101073.22
2022-12-03T21:48:21.872Z,101070.59
2022-12-03T21:51:01.919Z,101068.00
2022-12-03T21:53:28.630Z,101042.88
2022-12-03T21:55:54.962Z,100927.53
2022-12-03T21:58:21.417Z,100994.25
2022-12-03T22:00:47.869Z,101016.81
2022-12-03T22:03:14.316Z,101015.03
2022-12-03T22:05:40.691Z,101026.34
2022-12-03T22:08:10.040Z,101007.03
2022-12-03T22:10:36.735Z,100982.09
2022-12-03T22:13:03.062Z,101028.91
2022-12-03T22:15:29.406Z,101065.34
2022-12-03T22:17:55.783Z,101035.91
2022-12-03T22:20:22.122Z,101023.72
2022-12-03T22:22:48.466Z,101022.09
2022-12-03T22:25:15.027Z,101033.34
2022-12-03T22:27:41.361Z,101006.44
2022-12-03T22:30:08.557Z,100962.22
2022-12-03T22:32:35.784Z,101039.44
2022-12-03T22:35:02.109Z,101032.53
2022-12-03T22:37:28.441Z,101028.19
2022-12-03T22:39:55.021Z,101003.03
2022-12-03T22:42:21.489Z,101028.25
2022-12-03T22:44:47.806Z,100995.22
2022-12-03T22:47:14.178Z,100931.00
2022-12-03T22:49:40.505Z,100950.09
2022-12-03T22:52:07.552Z,101026.34
2022-12-03T22:54:33.902Z,101007.28
2022-12-03T22:57:00.381Z,100996.88
2022-12-03T22:59:26.692Z,101009.94
2022-12-03T23:01:53.063Z,101011.72
2022-12-03T23:04:19.551Z,100998.78
2022-12-03T23:06:46.216Z,101034.28
2022-12-03T23:09:12.677Z,100976.06
2022-12-03T23:11:39.158Z,100984.72
2022-12-03T23:14:05.539Z,100984.00
2022-12-03T23:16:33.051Z,101002.97
2022-12-03T23:19:01.116Z,100962.25
2022-12-03T23:21:30.945Z,101007.38
2022-12-03T23:23:58.994Z,100993.50
2022-12-03T23:26:25.399Z,101013.34
2022-12-03T23:28:51.785Z,100982.06
2022-12-03T23:31:24.406Z,100988.13
2022-12-03T23:33:52.130Z,100995.13
2022-12-03T23:36:19.507Z,101010.78
2022-12-03T23:38:45.978Z,100978.75
2022-12-03T23:41:18.405Z,101028.16
2022-12-03T23:43:44.942Z,101019.44
2022-12-03T23:46:14.661Z,100957.91
2022-12-03T23:48:41.825Z,100997.81
2022-12-03T23:51:10.426Z,100983.03
2022-12-03T23:53:38.017Z,101023.84
2022-12-03T23:56:12.822Z,100991.75
2022-12-03T23:58:39.667Z,100993.50
